createdAt,value
2019-03-19T00:00:29.157Z,21.77
2019-03-19T00:02:55.488Z,21.76
2019-03-19T00:05:21.881Z,21.73
2019-03-19T00:07:48.230Z,21.80
2019-03-19T00:10:14.571Z,21.77
2019-03-19T00:12:41.013Z,21.76
2019-03-19T00:15:07.471Z,21.77
2019-03-19T00:17:33.801Z,21.72
2019-03-19T00:20:00.358Z,21.75
2019-03-19T00:22:26.553Z,21.72
2019-03-19T00:24:52.920Z,21.72
2019-03-19T00:27:19.232Z,21.76
2019-03-19T00:29:45.596Z,21.72
2019-03-19T00:32:12.058Z,21.74
2019-03-19T00:34:38.396Z,21.70
2019-03-19T00:37:04.731Z,21.68
2019-03-19T00:39:31.062Z,21.71
2019-03-19T00:41:57.425Z,21.68
2019-03-19T00:44:23.764Z,21.68
2019-03-19T00:46:50.187Z,21.72
2019-03-19T00:49:16.685Z,21.68
2019-03-19T00:51:43.088Z,21.67
2019-03-19T00:54:09.453Z,21.66
2019-03-19T00:56:35.839Z,21.66
2019-03-19T00:59:02.153Z,21.67
2019-03-19T01:01:28.504Z,21.66
2019-03-19T01:03:54.879Z,21.65
2019-03-19T01:06:21.618Z,21.73
2019-03-19T01:08:48.007Z,21.67
2019-03-19T01:11:14.382Z,21.56
2019-03-19T01:13:40.674Z,21.53
2019-03-19T01:16:07.207Z,21.49
2019-03-19T01:18:33.553Z,21.52
2019-03-19T01:20:59.891Z,21.52
2019-03-19T01:23:26.240Z,21.52
2019-03-19T01:25:55.456Z,21.54
2019-03-19T01:28:18.945Z,21.59
2019-03-19T01:30:45.276Z,21.57
2019-03-19T01:33:11.645Z,21.59
2019-03-19T01:35:37.976Z,21.60
2019-03-19T01:38:04.274Z,21.63
2019-03-19T01:40:30.671Z,21.60
2019-03-19T01:42:57.071Z,21.64
2019-03-19T01:45:23.423Z,21.62
2019-03-19T01:47:49.800Z,21.65
2019-03-19T01:50:16.153Z,21.69
2019-03-19T01:52:42.500Z,21.68
2019-03-19T01:55:08.945Z,21.67
2019-03-19T01:57:35.277Z,21.65
2019-03-19T02:00:01.671Z,21.70
2019-03-19T02:02:28.098Z,21.67
2019-03-19T02:04:54.370Z,21.67
2019-03-19T02:07:20.764Z,21.68
2019-03-19T02:09:47.229Z,21.65
2019-03-19T02:12:13.627Z,21.68
2019-03-19T02:14:40.032Z,21.69
2019-03-19T02:17:06.325Z,21.70
2019-03-19T02:19:32.728Z,21.75
2019-03-19T02:21:59.047Z,21.76
2019-03-19T02:24:25.462Z,21.75
2019-03-19T02:26:51.803Z,21.75
2019-03-19T02:29:18.132Z,21.80
2019-03-19T02:31:44.480Z,21.80
2019-03-19T02:34:10.799Z,21.81
2019-03-19T02:36:37.188Z,21.82
2019-03-19T02:39:03.522Z,21.86
2019-03-19T02:41:29.863Z,21.87
2019-03-19T02:43:56.169Z,21.87
2019-03-19T02:46:22.554Z,21.90
2019-03-19T02:48:48.910Z,21.87
2019-03-19T02:51:15.239Z,21.87
2019-03-19T02:53:41.625Z,21.95
2019-03-19T02:56:07.933Z,21.91
2019-03-19T02:58:34.275Z,21.93
2019-03-19T03:01:00.653Z,21.93
2019-03-19T03:03:26.993Z,21.95
2019-03-19T03:05:53.378Z,21.96
2019-03-19T03:08:19.728Z,21.98
2019-03-19T03:10:48.042Z,21.97
2019-03-19T03:13:12.417Z,22.00
2019-03-19T03:15:38.784Z,21.96
2019-03-19T03:18:05.162Z,21.93
2019-03-19T03:20:31.551Z,21.96
2019-03-19T03:22:57.925Z,22.02
2019-03-19T03:25:24.299Z,22.02
2019-03-19T03:27:50.648Z,22.04
2019-03-19T03:30:17.011Z,22.03
2019-03-19T03:32:43.382Z,22.06
2019-03-19T03:35:09.731Z,22.06
2019-03-19T03:37:36.060Z,22.07
2019-03-19T03:40:02.459Z,22.04
2019-03-19T03:42:28.879Z,22.06
2019-03-19T03:44:55.197Z,22.04
2019-03-19T03:47:21.635Z,22.05
2019-03-19T03:49:47.993Z,22.06
2019-03-19T03:52:14.323Z,22.07
2019-03-19T03:54:40.674Z,22.10
2019-03-19T03:57:07.082Z,22.07
2019-03-19T03:59:33.422Z,22.12
2019-03-19T04:01:59.768Z,22.13
2019-03-19T04:04:26.111Z,22.21
2019-03-19T04:06:52.496Z,22.26
2019-03-19T04:09:18.832Z,22.28
2019-03-19T04:11:45.170Z,22.36
2019-03-19T04:14:11.513Z,22.38
2019-03-19T04:16:37.900Z,22.45
2019-03-19T04:19:04.255Z,22.47
2019-03-19T04:21:30.592Z,22.46
2019-03-19T04:23:56.931Z,22.54
2019-03-19T04:26:23.266Z,22.59
2019-03-19T04:28:49.602Z,22.61
2019-03-19T04:31:16.005Z,22.61
2019-03-19T04:33:42.361Z,22.70
2019-03-19T04:36:08.691Z,22.71
2019-03-19T04:38:35.034Z,22.74
2019-03-19T04:41:01.379Z,22.68
2019-03-19T04:43:27.753Z,22.78
2019-03-19T04:45:54.130Z,22.80
2019-03-19T04:48:20.467Z,22.76
2019-03-19T04:50:46.793Z,22.83
2019-03-19T04:53:13.162Z,22.88
2019-03-19T04:55:39.496Z,22.91
2019-03-19T04:58:05.827Z,22.89
2019-03-19T05:00:32.376Z,23.01
2019-03-19T05:02:58.694Z,23.08
2019-03-19T05:05:25.064Z,23.12
2019-03-19T05:07:51.398Z,23.18
2019-03-19T05:10:17.769Z,23.24
2019-03-19T05:12:44.086Z,23.25
2019-03-19T05:15:10.646Z,23.30
2019-03-19T05:17:36.973Z,23.38
2019-03-19T05:20:03.303Z,23.46
2019-03-19T05:22:29.699Z,23.51
2019-03-19T05:24:56.001Z,23.60
2019-03-19T05:27:22.373Z,23.70
2019-03-19T05:29:48.701Z,23.79
2019-03-19T05:32:15.059Z,23.85
2019-03-19T05:34:41.500Z,23.90
2019-03-19T05:37:07.887Z,23.92
2019-03-19T05:39:34.239Z,23.96
2019-03-19T05:42:00.777Z,24.00
2019-03-19T05:44:27.071Z,24.06
2019-03-19T05:46:53.624Z,24.16
2019-03-19T05:49:19.991Z,24.18
2019-03-19T05:51:46.314Z,24.25
2019-03-19T05:54:12.700Z,24.22
2019-03-19T05:56:39.039Z,24.21
2019-03-19T05:59:05.527Z,24.26
2019-03-19T06:01:31.795Z,24.30
2019-03-19T06:03:58.215Z,24.34
2019-03-19T06:06:24.627Z,24.31
2019-03-19T06:08:50.915Z,24.34
2019-03-19T06:11:17.341Z,24.44
2019-03-19T06:13:43.718Z,24.47
2019-03-19T06:16:10.054Z,24.48
2019-03-19T06:18:36.374Z,24.54
2019-03-19T06:21:02.724Z,24.52
2019-03-19T06:23:29.046Z,24.58
2019-03-19T06:25:55.420Z,24.59
2019-03-19T06:28:21.797Z,24.65
2019-03-19T06:30:48.157Z,24.65
2019-03-19T06:33:14.495Z,24.76
2019-03-19T06:35:40.883Z,24.79
2019-03-19T06:38:07.256Z,24.88
2019-03-19T06:40:36.103Z,24.96
2019-03-19T06:43:02.480Z,24.84
2019-03-19T06:45:28.821Z,25.04
2019-03-19T06:47:55.148Z,25.17
2019-03-19T06:50:21.569Z,25.07
2019-03-19T06:52:48.004Z,25.17
2019-03-19T06:55:14.337Z,25.25
2019-03-19T06:57:40.668Z,25.25
2019-03-19T07:00:07.017Z,25.31
2019-03-19T07:02:33.427Z,25.30
2019-03-19T07:04:59.807Z,25.32
2019-03-19T07:07:26.162Z,25.26
2019-03-19T07:09:52.505Z,25.32
2019-03-19T07:12:18.850Z,25.39
2019-03-19T07:14:45.240Z,25.35
2019-03-19T07:17:11.604Z,25.30
2019-03-19T07:19:37.956Z,25.38
2019-03-19T07:22:04.478Z,25.41
2019-03-19T07:24:30.769Z,25.45
2019-03-19T07:26:57.151Z,25.35
2019-03-19T07:29:23.502Z,25.38
2019-03-19T07:31:50.097Z,25.43
2019-03-19T07:34:16.599Z,25.42
2019-03-19T07:36:42.905Z,25.37
2019-03-19T07:39:09.236Z,25.41
2019-03-19T07:41:35.721Z,25.41
2019-03-19T07:44:02.167Z,25.47
2019-03-19T07:46:28.540Z,25.48
2019-03-19T07:48:54.894Z,25.47
2019-03-19T07:51:21.365Z,25.48
2019-03-19T07:53:47.699Z,25.46
2019-03-19T07:56:14.047Z,25.41
2019-03-19T07:58:45.235Z,25.45
2019-03-19T08:01:06.810Z,25.46
2019-03-19T08:03:33.184Z,25.43
2019-03-19T08:05:59.539Z,25.49
2019-03-19T08:08:25.923Z,25.42
2019-03-19T08:10:52.282Z,25.48
2019-03-19T08:13:18.745Z,25.44
2019-03-19T08:15:45.091Z,25.46
2019-03-19T08:18:11.490Z,25.48
2019-03-19T08:20:37.862Z,25.47
2019-03-19T08:23:04.258Z,25.45
2019-03-19T08:25:30.651Z,25.42
2019-03-19T08:27:57.052Z,25.40
2019-03-19T08:30:24.855Z,25.47
2019-03-19T08:32:49.738Z,25.43
2019-03-19T08:35:16.134Z,25.39
2019-03-19T08:37:42.541Z,25.40
2019-03-19T08:40:08.868Z,25.46
2019-03-19T08:42:35.237Z,25.41
2019-03-19T08:45:01.633Z,25.44
2019-03-19T08:47:28.129Z,25.40
2019-03-19T08:49:54.436Z,25.37
2019-03-19T08:52:20.830Z,25.33
2019-03-19T08:54:47.181Z,25.25
2019-03-19T08:57:13.620Z,25.35
2019-03-19T08:59:39.968Z,25.28
2019-03-19T09:02:06.347Z,25.32
2019-03-19T09:04:32.744Z,25.30
2019-03-19T09:06:59.367Z,25.26
2019-03-19T09:09:25.675Z,25.32
2019-03-19T09:11:52.016Z,25.37
2019-03-19T09:14:20.671Z,25.56
2019-03-19T09:16:45.132Z,25.22
2019-03-19T09:19:11.475Z,25.25
2019-03-19T09:21:37.818Z,25.31
2019-03-19T09:24:04.256Z,25.20
2019-03-19T09:26:30.606Z,25.16
2019-03-19T09:28:56.962Z,25.08
2019-03-19T09:31:23.346Z,25.04
2019-03-19T09:33:49.680Z,25.04
2019-03-19T09:36:16.061Z,25.04
2019-03-19T09:38:42.465Z,25.01
2019-03-19T09:43:56.106Z,24.92
2019-03-19T09:46:22.456Z,24.91
2019-03-19T09:48:48.861Z,24.87
2019-03-19T09:51:15.240Z,24.96
2019-03-19T09:53:41.632Z,24.95
2019-03-19T09:56:08.160Z,24.93
2019-03-19T09:58:34.517Z,24.91
2019-03-19T10:01:00.888Z,25.00
2019-03-19T10:03:27.242Z,24.89
2019-03-19T10:05:53.667Z,24.85
2019-03-19T10:08:20.041Z,24.93
2019-03-19T10:10:46.403Z,24.83
2019-03-19T10:13:14.957Z,24.81
2019-03-19T10:15:39.131Z,24.82
2019-03-19T10:18:05.468Z,24.67
2019-03-19T10:20:31.974Z,24.69
2019-03-19T10:22:58.479Z,24.62
2019-03-19T10:25:24.872Z,24.71
2019-03-19T10:27:51.172Z,24.68
2019-03-19T10:30:17.525Z,24.76
2019-03-19T10:32:43.880Z,24.77
2019-03-19T10:35:10.252Z,24.75
2019-03-19T10:37:36.611Z,24.74
2019-03-19T10:40:04.039Z,24.73
2019-03-19T10:42:30.410Z,24.77
2019-03-19T10:44:56.833Z,24.74
2019-03-19T10:47:23.212Z,24.74
2019-03-19T10:49:49.535Z,24.76
2019-03-19T10:52:15.899Z,24.89
2019-03-19T10:54:42.253Z,24.89
2019-03-19T10:57:08.615Z,24.89
2019-03-19T10:59:36.262Z,24.90
2019-03-19T11:02:02.608Z,24.98
2019-03-19T11:04:28.953Z,24.96
2019-03-19T11:06:55.278Z,24.89
2019-03-19T11:09:21.681Z,24.99
2019-03-19T11:11:48.134Z,24.90
2019-03-19T11:14:14.456Z,25.02
2019-03-19T11:16:40.804Z,24.94
2019-03-19T11:19:07.197Z,24.91
2019-03-19T11:21:33.548Z,24.88
2019-03-19T11:23:59.883Z,25.00
2019-03-19T11:26:26.295Z,24.94
2019-03-19T11:28:52.641Z,24.99
2019-03-19T11:31:19.156Z,24.92
2019-03-19T11:33:47.633Z,24.88
2019-03-19T11:36:11.945Z,24.87
2019-03-19T11:38:38.336Z,24.86
2019-03-19T11:41:07.167Z,24.78
2019-03-19T11:43:31.224Z,24.87
2019-03-19T11:45:57.623Z,24.94
2019-03-19T11:48:24.604Z,24.92
2019-03-19T11:50:51.114Z,24.87
2019-03-19T11:53:17.432Z,24.90
2019-03-19T11:55:43.807Z,24.95
2019-03-19T11:58:10.148Z,24.98
2019-03-19T12:00:36.597Z,24.94
2019-03-19T12:03:11.497Z,24.98
2019-03-19T12:05:29.325Z,24.85
2019-03-19T12:07:55.682Z,24.82
2019-03-19T12:10:22.042Z,24.74
2019-03-19T12:12:48.394Z,24.75
2019-03-19T12:15:14.738Z,24.87
2019-03-19T12:17:41.184Z,24.80
2019-03-19T12:20:07.570Z,24.75
2019-03-19T12:22:34.027Z,24.74
2019-03-19T12:25:00.383Z,24.73
2019-03-19T12:27:26.710Z,24.77
2019-03-19T12:29:53.117Z,24.73
2019-03-19T12:32:19.497Z,24.72
2019-03-19T12:34:45.825Z,24.73
2019-03-19T12:37:12.223Z,24.77
2019-03-19T12:39:38.567Z,24.68
2019-03-19T12:42:04.921Z,24.76
2019-03-19T12:44:31.268Z,24.86
2019-03-19T12:46:57.654Z,24.78
2019-03-19T12:49:23.989Z,24.84
2019-03-19T12:51:50.419Z,24.87
2019-03-19T12:54:16.710Z,24.91
2019-03-19T12:56:43.042Z,24.85
2019-03-19T12:59:19.812Z,24.85
2019-03-19T13:01:35.970Z,24.81
2019-03-19T13:04:02.387Z,24.72
2019-03-19T13:06:28.757Z,24.83
2019-03-19T13:08:55.126Z,24.79
2019-03-19T13:11:21.491Z,24.89
2019-03-19T13:13:47.897Z,24.88
2019-03-19T13:16:14.330Z,24.84
2019-03-19T13:18:40.712Z,24.81
2019-03-19T13:21:07.063Z,24.81
2019-03-19T13:23:33.428Z,24.92
2019-03-19T13:25:59.802Z,24.90
2019-03-19T13:28:26.309Z,24.86
2019-03-19T13:30:52.627Z,24.76
2019-03-19T13:33:19.288Z,24.72
2019-03-19T13:35:45.729Z,24.72
2019-03-19T13:38:12.775Z,24.75
2019-03-19T13:40:38.559Z,24.76
2019-03-19T13:43:05.083Z,24.75
2019-03-19T13:45:31.432Z,24.77
2019-03-19T13:47:57.882Z,24.65
2019-03-19T13:50:24.262Z,24.79
2019-03-19T13:52:50.801Z,24.77
2019-03-19T13:55:17.133Z,24.74
2019-03-19T13:57:43.506Z,24.78
2019-03-19T14:00:10.306Z,24.75
2019-03-19T14:02:36.805Z,24.74
2019-03-19T14:05:03.140Z,24.77
2019-03-19T14:07:29.640Z,24.68
2019-03-19T14:09:56.043Z,24.73
2019-03-19T14:12:22.351Z,24.75
2019-03-19T14:14:48.838Z,24.63
2019-03-19T14:17:15.234Z,24.79
2019-03-19T14:19:41.639Z,24.73
2019-03-19T14:22:08.391Z,24.72
2019-03-19T14:24:34.880Z,24.93
2019-03-19T14:27:01.246Z,24.84
2019-03-19T14:29:27.694Z,24.92
2019-03-19T14:31:54.075Z,24.98
2019-03-19T14:34:20.469Z,24.94
2019-03-19T14:36:46.828Z,24.92
2019-03-19T14:39:15.394Z,24.97
2019-03-19T14:41:41.890Z,24.88
2019-03-19T14:44:08.259Z,25.00
2019-03-19T14:46:37.069Z,24.96
2019-03-19T14:49:03.506Z,24.96
2019-03-19T14:51:29.911Z,24.90
2019-03-19T14:53:56.375Z,25.04
2019-03-19T14:56:22.740Z,25.05
2019-03-19T14:58:49.246Z,24.94
2019-03-19T15:01:19.537Z,25.03
2019-03-19T15:03:42.031Z,25.01
2019-03-19T15:06:08.442Z,25.00
2019-03-19T15:08:34.885Z,25.04
2019-03-19T15:11:01.325Z,25.01
2019-03-19T15:13:27.697Z,25.02
2019-03-19T15:15:54.049Z,25.02
2019-03-19T15:18:20.441Z,24.94
2019-03-19T15:20:46.779Z,25.04
2019-03-19T15:23:13.144Z,24.94
2019-03-19T15:25:39.523Z,24.97
2019-03-19T15:28:05.937Z,24.99
2019-03-19T15:30:32.271Z,24.92
2019-03-19T15:32:58.627Z,24.81
2019-03-19T15:35:25.059Z,24.89
2019-03-19T15:37:51.475Z,24.91
2019-03-19T15:40:17.897Z,24.97
2019-03-19T15:42:44.290Z,24.84
2019-03-19T15:45:10.647Z,24.85
2019-03-19T15:47:37.090Z,24.86
2019-03-19T15:50:03.459Z,24.79
2019-03-19T15:52:29.890Z,24.85
2019-03-19T15:54:56.249Z,24.83
2019-03-19T15:57:22.575Z,24.79
2019-03-19T15:59:48.923Z,24.78
2019-03-19T16:02:15.321Z,24.77
2019-03-19T16:04:41.675Z,24.78
2019-03-19T16:07:08.068Z,24.76
2019-03-19T16:09:34.377Z,24.74
2019-03-19T16:12:00.773Z,24.72
2019-03-19T16:14:27.115Z,24.74
2019-03-19T16:16:53.545Z,24.79
2019-03-19T16:19:22.325Z,24.71
2019-03-19T16:21:48.753Z,24.72
2019-03-19T16:24:15.136Z,24.66
2019-03-19T16:26:41.496Z,24.70
2019-03-19T16:29:07.824Z,24.67
2019-03-19T16:31:34.189Z,24.74
2019-03-19T16:34:00.537Z,24.66
2019-03-19T16:36:26.868Z,24.67
2019-03-19T16:38:53.199Z,24.76
2019-03-19T16:41:19.630Z,24.63
2019-03-19T16:43:45.961Z,24.62
2019-03-19T16:46:12.342Z,24.62
2019-03-19T16:48:38.725Z,24.63
2019-03-19T16:51:05.067Z,24.67
2019-03-19T16:53:31.485Z,24.64
2019-03-19T16:55:57.866Z,24.61
2019-03-19T16:58:24.168Z,24.53
2019-03-19T17:00:50.550Z,24.54
2019-03-19T17:03:16.885Z,24.54
2019-03-19T17:05:45.219Z,24.54
2019-03-19T17:08:09.604Z,24.50
2019-03-19T17:10:36.007Z,24.47
2019-03-19T17:13:02.329Z,24.49
2019-03-19T17:15:28.775Z,24.48
2019-03-19T17:17:55.170Z,24.45
2019-03-19T17:20:21.524Z,24.45
2019-03-19T17:22:47.907Z,24.43
2019-03-19T17:25:14.268Z,24.40
2019-03-19T17:27:40.722Z,24.40
2019-03-19T17:30:07.059Z,24.37
2019-03-19T17:32:33.482Z,24.35
2019-03-19T17:34:59.831Z,24.34
2019-03-19T17:37:26.162Z,24.34
2019-03-19T17:39:52.587Z,24.34
2019-03-19T17:42:18.918Z,24.29
2019-03-19T17:44:45.293Z,24.25
2019-03-19T17:47:11.737Z,24.23
2019-03-19T17:49:38.028Z,24.26
2019-03-19T17:52:04.359Z,24.22
2019-03-19T17:54:30.686Z,24.23
2019-03-19T17:56:57.057Z,24.21
2019-03-19T17:59:23.399Z,24.19
2019-03-19T18:01:49.773Z,24.16
2019-03-19T18:04:16.110Z,24.08
2019-03-19T18:06:43.292Z,24.09
2019-03-19T18:09:08.812Z,24.09
2019-03-19T18:11:35.151Z,24.11
2019-03-19T18:14:01.515Z,24.13
2019-03-19T18:16:27.851Z,24.09
2019-03-19T18:18:54.394Z,24.12
2019-03-19T18:21:20.771Z,24.13
2019-03-19T18:23:47.145Z,24.16
2019-03-19T18:26:13.469Z,24.12
2019-03-19T18:28:39.806Z,24.13
2019-03-19T18:31:06.147Z,24.18
2019-03-19T18:33:32.480Z,24.13
2019-03-19T18:35:58.857Z,24.14
2019-03-19T18:38:25.179Z,24.13
2019-03-19T18:40:51.535Z,24.14
2019-03-19T18:43:17.871Z,24.13
2019-03-19T18:45:44.214Z,24.13
2019-03-19T18:48:10.578Z,24.08
2019-03-19T18:50:36.942Z,24.11
2019-03-19T18:53:03.334Z,24.13
2019-03-19T18:55:29.630Z,24.10
2019-03-19T18:57:56.072Z,24.10
2019-03-19T19:00:22.435Z,24.08
2019-03-19T19:02:50.475Z,24.09
2019-03-19T19:05:15.167Z,24.07
2019-03-19T19:07:41.558Z,24.07
2019-03-19T19:10:07.879Z,24.01
2019-03-19T19:12:34.393Z,23.94
2019-03-19T19:15:00.772Z,23.91
2019-03-19T19:17:27.074Z,23.87
2019-03-19T19:19:53.397Z,23.87
2019-03-19T19:22:19.729Z,23.81
2019-03-19T19:24:46.091Z,23.75
2019-03-19T19:27:12.458Z,23.75
2019-03-19T19:29:38.838Z,23.71
2019-03-19T19:32:05.166Z,23.71
2019-03-19T19:34:31.456Z,23.66
2019-03-19T19:36:57.792Z,23.65
2019-03-19T19:39:24.198Z,23.59
2019-03-19T19:41:50.516Z,23.57
2019-03-19T19:44:16.927Z,23.64
2019-03-19T19:46:43.230Z,23.64
2019-03-19T19:49:09.614Z,23.64
2019-03-19T19:51:35.904Z,23.53
2019-03-19T19:54:02.235Z,23.59
2019-03-19T19:56:28.870Z,23.48
2019-03-19T19:58:55.212Z,23.50
2019-03-19T20:01:21.544Z,23.45
2019-03-19T20:03:47.876Z,23.45
2019-03-19T20:06:14.214Z,23.45
2019-03-19T20:08:40.537Z,23.43
2019-03-19T20:11:06.875Z,23.43
2019-03-19T20:13:33.217Z,23.41
2019-03-19T20:15:59.649Z,23.37
2019-03-19T20:18:26.025Z,23.40
2019-03-19T20:20:52.325Z,23.35
2019-03-19T20:23:20.536Z,23.32
2019-03-19T20:25:46.925Z,23.27
2019-03-19T20:28:13.361Z,23.27
2019-03-19T20:30:39.822Z,23.29
2019-03-19T20:33:06.213Z,23.36
2019-03-19T20:35:35.001Z,23.27
2019-03-19T20:38:01.331Z,23.20
2019-03-19T20:40:27.641Z,23.17
2019-03-19T20:42:54.021Z,23.28
2019-03-19T20:45:20.308Z,23.20
2019-03-19T20:47:46.632Z,23.18
2019-03-19T20:50:12.999Z,23.20
2019-03-19T20:55:05.526Z,23.13
2019-03-19T20:57:31.924Z,23.16
2019-03-19T20:59:58.210Z,23.15
2019-03-19T21:02:24.645Z,23.13
2019-03-19T21:04:50.995Z,23.15
2019-03-19T21:07:17.350Z,23.13
2019-03-19T21:09:43.731Z,23.11
2019-03-19T21:12:10.099Z,23.11
2019-03-19T21:14:36.424Z,23.09
2019-03-19T21:17:02.841Z,23.11
2019-03-19T21:19:29.205Z,23.08
2019-03-19T21:21:55.540Z,23.06
2019-03-19T21:24:21.869Z,23.07
2019-03-19T21:26:48.376Z,23.05
2019-03-19T21:29:14.719Z,23.01
2019-03-19T21:31:41.046Z,23.03
2019-03-19T21:34:07.407Z,23.05
2019-03-19T21:36:33.722Z,23.03
2019-03-19T21:39:00.063Z,22.99
2019-03-19T21:41:26.465Z,22.92
2019-03-19T21:43:52.853Z,22.88
2019-03-19T21:46:19.181Z,22.86
2019-03-19T21:48:45.510Z,22.82
2019-03-19T21:51:11.905Z,22.79
2019-03-19T21:53:38.890Z,22.80
2019-03-19T21:56:05.271Z,22.79
2019-03-19T21:58:31.568Z,22.74
2019-03-19T22:00:57.892Z,22.72
2019-03-19T22:03:24.263Z,22.70
2019-03-19T22:05:50.602Z,22.71
2019-03-19T22:08:16.971Z,22.66
2019-03-19T22:10:43.317Z,22.67
2019-03-19T22:13:09.658Z,22.63
2019-03-19T22:15:35.990Z,22.62
2019-03-19T22:18:02.369Z,22.61
2019-03-19T22:20:28.700Z,22.60
2019-03-19T22:22:55.031Z,22.59
2019-03-19T22:25:21.547Z,22.57
2019-03-19T22:27:47.876Z,22.47
2019-03-19T22:30:14.276Z,22.54
2019-03-19T22:32:41.799Z,22.51
2019-03-19T22:35:07.055Z,22.50
2019-03-19T22:37:33.377Z,22.49
2019-03-19T22:39:59.701Z,22.47
2019-03-19T22:42:26.034Z,22.47
2019-03-19T22:44:52.353Z,22.46
2019-03-19T22:47:18.692Z,22.47
2019-03-19T22:49:45.021Z,22.43
2019-03-19T22:52:11.417Z,22.44
2019-03-19T22:54:37.854Z,22.41
2019-03-19T22:57:04.181Z,22.41
2019-03-19T22:59:30.556Z,22.41
2019-03-19T23:01:56.890Z,22.39
2019-03-19T23:04:27.098Z,22.37
2019-03-19T23:06:49.878Z,22.35
2019-03-19T23:09:16.208Z,22.36
2019-03-19T23:11:42.553Z,22.34
2019-03-19T23:14:08.907Z,22.33
2019-03-19T23:16:35.284Z,22.33
2019-03-19T23:19:01.653Z,22.32
2019-03-19T23:21:28.165Z,22.29
2019-03-19T23:23:54.503Z,22.28
2019-03-19T23:26:20.894Z,22.29
2019-03-19T23:28:47.242Z,22.26
2019-03-19T23:31:13.591Z,22.27
2019-03-19T23:33:40.020Z,22.27
2019-03-19T23:36:06.391Z,22.26
2019-03-19T23:38:32.767Z,22.23
2019-03-19T23:40:59.095Z,22.21
2019-03-19T23:43:25.467Z,22.22
2019-03-19T23:45:51.817Z,22.21
2019-03-19T23:48:18.174Z,22.18
2019-03-19T23:50:44.575Z,22.18
2019-03-19T23:53:10.915Z,22.20
2019-03-19T23:55:37.280Z,22.19
2019-03-19T23:58:03.619Z,22.15
